Time;durP1;ratioP1;P1;durP2;ratioP2;P2;SDS_P1;SDS_P2;PMS_P1;PMS_P2;Temp;Humidity;BMP_temperature;BMP_pressure;BME280_temperature;BME280_humidity;BME280_pressure;Samples;Min_cycle;Max_cycle;Signal;HPM_P1;HPM_P2
2024/01/06 00:00:57;;;;;;;5.40;4.90;;;6.20;99.90;;;;;;5147114;27;20478;-80
2024/01/06 00:03:39;;;;;;;6.43;5.10;;;6.50;99.90;;;;;;5147202;27;20407;-79
2024/01/06 00:06:14;;;;;;;6.40;5.13;;;6.20;99.90;;;;;;5132907;27;20464;-80
2024/01/06 00:08:53;;;;;;;4.67;4.23;;;6.50;99.90;;;;;;5130867;27;20454;-80
2024/01/06 00:14:25;;;;;;;6.60;3.90;;;6.40;99.90;;;;;;5145045;27;20458;-78
2024/01/06 00:17:05;;;;;;;5.50;3.70;;;6.40;99.90;;;;;;5143956;27;20453;-79
2024/01/06 00:19:54;;;;;;;;;;;;;;;;;;;;;
2024/01/06 00:22:41;;;;;;;6.47;3.10;;;6.40;99.90;;;;;;5144110;27;20476;-80
2024/01/06 00:25:16;;;;;;;4.70;2.87;;;6.40;99.90;;;;;;5141546;27;20479;-77
2024/01/06 00:27:49;;;;;;;7.10;2.90;;;6.40;99.90;;;;;;5141230;27;20524;-79
2024/01/06 00:30:23;;;;;;;4.50;2.87;;;6.40;99.90;;;;;;5140661;27;20456;-79
2024/01/06 00:33:07;;;;;;;2.83;2.63;;;6.40;99.90;;;;;;5139734;27;20472;-80
2024/01/06 00:35:44;;;;;;;5.73;2.97;;;6.30;99.90;;;;;;5139927;27;20475;-79
2024/01/06 00:38:34;;;;;;;3.37;2.90;;;6.40;99.90;;;;;;5139626;27;20515;-78
2024/01/06 00:41:13;;;;;;;4.10;3.00;;;6.40;99.90;;;;;;5138558;27;20470;-79
2024/01/06 00:43:48;;;;;;;4.73;2.80;;;6.40;99.90;;;;;;5138947;27;20804;-78
2024/01/06 00:46:25;;;;;;;2.40;2.20;;;6.30;99.90;;;;;;5139733;27;20884;-78
2024/01/06 00:49:03;;;;;;;3.10;2.37;;;6.40;99.90;;;;;;5140662;27;20548;-78
2024/01/06 00:51:38;;;;;;;2.87;2.67;;;6.30;99.90;;;;;;5144997;27;20465;-78
2024/01/06 00:54:18;;;;;;;4.23;2.50;;;6.30;99.90;;;;;;5144959;27;20536;-79
2024/01/06 00:56:55;;;;;;;5.20;2.50;;;6.30;99.90;;;;;;5142731;27;20445;-78
2024/01/06 00:59:40;;;;;;;3.77;2.30;;;6.30;99.90;;;;;;5144782;27;20450;-77
2024/01/06 01:02:14;;;;;;;7.10;2.50;;;6.30;99.90;;;;;;5145047;27;20567;-79
2024/01/06 01:05:07;;;;;;;3.20;2.30;;;6.30;99.90;;;;;;5139437;27;20549;-79
2024/01/06 01:07:54;;;;;;;4.07;2.47;;;6.30;99.90;;;;;;5116444;28;20443;-79
2024/01/06 01:10:35;;;;;;;2.87;2.50;;;6.30;99.90;;;;;;5116454;28;20449;-78
2024/01/06 01:13:29;;;;;;;2.63;2.10;;;6.30;99.90;;;;;;5116483;28;20427;-79
2024/01/06 01:16:04;;;;;;;3.80;2.27;;;6.30;99.90;;;;;;5117829;28;20858;-78
2024/01/06 01:18:36;;;;;;;3.80;2.53;;;6.30;99.90;;;;;;5117539;28;20434;-80
2024/01/06 01:21:13;;;;;;;4.20;2.30;;;6.30;99.90;;;;;;5116946;28;20536;-80
2024/01/06 01:23:56;;;;;;;4.20;2.20;;;6.30;99.90;;;;;;5116437;28;20457;-79
2024/01/06 01:26:36;;;;;;;2.20;2.10;;;6.30;99.90;;;;;;5115139;28;20447;-79
2024/01/06 01:29:16;;;;;;;2.37;2.00;;;6.30;99.90;;;;;;5117105;28;20443;-78
2024/01/06 01:32:10;;;;;;;2.30;1.93;;;6.30;99.90;;;;;;5115714;28;20520;-78
2024/01/06 01:34:54;;;;;;;4.53;1.87;;;6.30;99.90;;;;;;5116633;28;20523;-77
2024/01/06 01:37:47;;;;;;;3.40;1.93;;;6.00;99.90;;;;;;5116098;28;20457;-78
2024/01/06 01:40:17;;;;;;;3.30;2.23;;;6.20;99.90;;;;;;5116671;28;20451;-78
2024/01/06 01:43:01;;;;;;;3.00;2.20;;;6.20;99.90;;;;;;5116813;28;20488;-78
2024/01/06 01:45:32;;;;;;;3.20;2.40;;;6.20;99.90;;;;;;5119063;28;20451;-78
2024/01/06 01:48:07;;;;;;;8.10;2.37;;;6.30;99.90;;;;;;5121111;28;20431;-78
2024/01/06 01:50:46;;;;;;;1.97;1.70;;;6.20;99.90;;;;;;5124388;28;20535;-78
2024/01/06 01:53:26;;;;;;;2.67;2.10;;;6.30;99.90;;;;;;5126593;28;20450;-82
2024/01/06 01:58:53;;;;;;;1.93;1.80;;;6.20;99.90;;;;;;5129285;28;20430;-77
2024/01/06 02:01:34;;;;;;;1.97;1.87;;;6.40;99.90;;;;;;5120209;28;20478;-77
2024/01/06 02:06:58;;;;;;;5.20;2.40;;;6.20;99.90;;;;;;5119473;28;20431;-80
2024/01/06 02:09:29;;;;;;;2.87;2.30;;;6.30;99.90;;;;;;5121301;28;20439;-80
2024/01/06 02:12:02;;;;;;;2.80;2.30;;;6.30;99.90;;;;;;5120227;28;20486;-79
2024/01/06 02:14:42;;;;;;;5.43;3.00;;;6.50;99.90;;;;;;5119850;28;20448;-81
2024/01/06 02:17:29;;;;;;;4.07;2.30;;;6.30;99.90;;;;;;5118821;28;20448;-78
2024/01/06 02:20:11;;;;;;;5.03;2.00;;;6.00;99.90;;;;;;5118411;28;20507;-79
2024/01/06 02:23:00;;;;;;;3.43;2.03;;;6.30;99.90;;;;;;5118848;28;20560;-79
2024/01/06 02:25:55;;;;;;;1.90;1.80;;;6.30;99.90;;;;;;5119084;28;20467;-78
2024/01/06 02:28:40;;;;;;;2.70;1.70;;;6.30;99.90;;;;;;5118333;28;20505;-79
2024/01/06 02:31:13;;;;;;;2.13;1.90;;;6.30;99.90;;;;;;5119468;28;20810;-79
2024/01/06 02:33:54;;;;;;;4.40;1.83;;;6.30;99.90;;;;;;5118065;28;20505;-79
2024/01/06 02:36:39;;;;;;;5.13;2.40;;;6.30;99.90;;;;;;5117569;28;20457;-78
2024/01/06 02:42:50;;;;;;;1.90;1.70;;;6.30;99.90;;;;;;5089049;28;20478;-78
2024/01/06 02:45:30;;;;;;;2.00;1.90;;;6.30;99.90;;;;;;5117732;28;20456;-78
2024/01/06 02:48:05;;;;;;;5.93;2.67;;;6.30;99.90;;;;;;5118487;28;20451;-78
2024/01/06 02:51:01;;;;;;;2.90;1.93;;;6.30;99.90;;;;;;5118892;28;20447;-78
2024/01/06 02:54:02;;;;;;;2.97;2.23;;;6.30;99.90;;;;;;5116662;28;20495;-77
2024/01/06 02:56:48;;;;;;;6.10;2.27;;;6.50;99.90;;;;;;5123002;28;20550;-78
2024/01/06 02:59:31;;;;;;;3.20;2.20;;;6.30;99.90;;;;;;5128206;28;20842;-80
2024/01/06 03:05:38;;;;;;;3.50;1.93;;;6.20;99.90;;;;;;5133031;28;20446;-79
2024/01/06 03:08:27;;;;;;;2.43;1.80;;;6.30;99.90;;;;;;5130086;28;20448;-80
2024/01/06 03:14:04;;;;;;;2.17;2.03;;;6.30;99.90;;;;;;5127096;28;20427;-81
2024/01/06 03:16:50;;;;;;;4.50;2.87;;;6.20;99.90;;;;;;5125590;28;20477;-80
2024/01/06 03:19:27;;;;;;;5.27;2.10;;;6.30;99.90;;;;;;5117373;28;20510;-77
2024/01/06 03:22:25;;;;;;;3.57;2.43;;;6.30;99.90;;;;;;5115838;28;20543;-78
2024/01/06 03:25:01;;;;;;;2.43;2.13;;;6.30;99.90;;;;;;5114585;28;20459;-79
2024/01/06 03:27:48;;;;;;;2.40;2.20;;;6.50;99.90;;;;;;5114608;28;20452;-79
2024/01/06 03:30:39;;;;;;;3.70;2.30;;;6.20;99.90;;;;;;5113954;28;20447;-80
2024/01/06 03:33:43;;;;;;;8.40;2.70;;;6.20;99.90;;;;;;5114096;28;20485;-79
2024/01/06 03:36:28;;;;;;;2.27;1.93;;;6.20;99.90;;;;;;5114623;28;20451;-78
2024/01/06 03:39:23;;;;;;;3.30;2.23;;;6.20;99.90;;;;;;5113957;28;20474;-79
2024/01/06 03:42:17;;;;;;;4.57;1.80;;;6.20;99.90;;;;;;5113184;28;20479;-80
2024/01/06 03:47:54;;;;;;;4.10;2.40;;;6.10;99.90;;;;;;5101652;28;20812;-78
2024/01/06 03:50:43;;;;;;;3.30;2.23;;;6.10;99.90;;;;;;5116063;28;20455;-79
2024/01/06 03:53:17;;;;;;;4.50;2.10;;;6.10;99.90;;;;;;5117570;28;20515;-78
2024/01/06 03:55:56;;;;;;;4.87;2.50;;;6.10;99.90;;;;;;5116976;28;20446;-79
2024/01/06 03:58:37;;;;;;;2.00;1.80;;;6.10;99.90;;;;;;5116646;28;20468;-78
2024/01/06 04:01:18;;;;;;;5.37;1.93;;;6.10;99.90;;;;;;5116368;28;20466;-80
2024/01/06 04:03:55;;;;;;;3.23;2.10;;;6.10;99.90;;;;;;5115860;28;20539;-79
2024/01/06 04:06:47;;;;;;;2.60;1.83;;;6.10;99.90;;;;;;5132865;27;20458;-78
2024/01/06 04:09:27;;;;;;;6.40;2.30;;;6.10;99.90;;;;;;5136999;27;20471;-80
2024/01/06 04:12:04;;;;;;;6.60;2.23;;;6.10;99.90;;;;;;5137705;27;20465;-80
2024/01/06 04:17:37;;;;;;;4.73;2.00;;;6.00;99.90;;;;;;5131378;27;20890;-78
2024/01/06 04:20:15;;;;;;;3.80;2.00;;;6.00;99.90;;;;;;5136572;27;20539;-77
2024/01/06 04:22:58;;;;;;;3.40;2.03;;;5.80;99.90;;;;;;5136695;27;20481;-81
2024/01/06 04:25:38;;;;;;;3.80;2.20;;;6.10;99.90;;;;;;5137082;27;20538;-79
2024/01/06 04:28:18;;;;;;;4.73;2.00;;;6.10;99.90;;;;;;5137180;27;20451;-79
2024/01/06 04:30:58;;;;;;;3.73;2.30;;;6.00;99.90;;;;;;5137128;27;20470;-78
2024/01/06 04:33:41;;;;;;;1.90;1.80;;;6.10;99.90;;;;;;5136980;27;20446;-78
2024/01/06 04:36:27;;;;;;;5.00;2.20;;;6.00;99.90;;;;;;5137432;27;20529;-79
2024/01/06 04:39:04;;;;;;;2.40;2.20;;;6.00;99.90;;;;;;5139424;27;20449;-77
2024/01/06 04:41:44;;;;;;;5.33;2.57;;;6.10;99.90;;;;;;5140906;27;20469;-78
2024/01/06 04:44:37;;;;;;;2.13;2.00;;;5.80;99.90;;;;;;5137964;27;20415;-79
2024/01/06 04:47:11;;;;;;;2.60;2.40;;;5.70;99.90;;;;;;5136996;27;20428;-80
2024/01/06 04:50:13;;;;;;;2.60;2.30;;;5.70;99.90;;;;;;5137404;27;20507;-77
2024/01/06 04:52:54;;;;;;;4.63;2.10;;;6.20;99.90;;;;;;5136844;27;20545;-78
2024/01/06 04:55:37;;;;;;;4.70;2.50;;;6.00;99.90;;;;;;5136679;27;20496;-79
2024/01/06 04:58:18;;;;;;;3.77;2.13;;;6.00;99.90;;;;;;5137913;27;20567;-79
2024/01/06 05:00:57;;;;;;;6.00;2.50;;;6.20;99.90;;;;;;5136525;27;20446;-79
2024/01/06 05:03:41;;;;;;;2.90;2.20;;;5.70;99.90;;;;;;5139712;27;20471;-79
2024/01/06 05:06:35;;;;;;;1.87;1.77;;;6.00;99.90;;;;;;5139615;27;20447;-79
2024/01/06 05:09:20;;;;;;;3.83;2.50;;;6.00;99.90;;;;;;5144372;27;20455;-78
2024/01/06 05:12:01;;;;;;;2.03;1.87;;;5.90;99.90;;;;;;5145835;27;20471;-78
2024/01/06 05:14:42;;;;;;;2.20;2.00;;;5.90;99.90;;;;;;5145423;27;20435;-79
2024/01/06 05:17:36;;;;;;;2.80;2.40;;;5.90;99.90;;;;;;5146219;27;20501;-77
2024/01/06 05:20:12;;;;;;;4.37;2.40;;;5.90;99.90;;;;;;5149876;27;20450;-78
2024/01/06 05:22:51;;;;;;;2.20;2.10;;;5.90;99.90;;;;;;5150308;27;20566;-78
2024/01/06 05:25:40;;;;;;;2.60;2.20;;;5.90;99.90;;;;;;5150850;27;20442;-78
2024/01/06 05:28:18;;;;;;;2.43;2.30;;;5.80;99.90;;;;;;5146665;27;20439;-79
2024/01/06 05:31:06;;;;;;;;;;;;;;;;;;;;;
2024/01/06 05:33:45;;;;;;;6.23;2.97;;;5.80;99.90;;;;;;5142937;27;20449;-78
2024/01/06 05:36:21;;;;;;;4.50;2.40;;;5.80;99.90;;;;;;5144340;27;20501;-80
2024/01/06 05:39:00;;;;;;;6.27;2.87;;;5.90;99.90;;;;;;5145424;27;20445;-78
2024/01/06 05:41:48;;;;;;;2.60;2.50;;;5.80;99.90;;;;;;5149611;27;20466;-78
2024/01/06 05:44:32;;;;;;;2.47;2.27;;;5.80;99.90;;;;;;5150052;27;20429;-78
2024/01/06 05:47:29;;;;;;;3.40;2.90;;;5.80;99.90;;;;;;5140814;27;20442;-78
2024/01/06 05:50:19;;;;;;;2.87;2.67;;;5.80;99.90;;;;;;5138802;27;20479;-79
2024/01/06 05:53:07;;;;;;;3.90;3.30;;;5.90;99.90;;;;;;5137956;27;20462;-79
2024/01/06 05:56:05;;;;;;;3.13;2.40;;;5.90;99.90;;;;;;5137823;27;20460;-76
2024/01/06 05:58:48;;;;;;;2.93;2.47;;;5.90;99.90;;;;;;5137792;27;20487;-78
2024/01/06 06:01:48;;;;;;;9.47;7.50;;;5.90;99.90;;;;;;5136945;27;20561;-77
2024/01/06 06:04:29;;;;;;;5.23;4.23;;;5.90;99.90;;;;;;5139217;27;21024;-78
2024/01/06 06:07:13;;;;;;;3.27;2.50;;;5.90;99.90;;;;;;5140038;27;20506;-76
2024/01/06 06:09:49;;;;;;;2.70;2.00;;;5.90;99.90;;;;;;5141242;27;20473;-77
2024/01/06 06:12:31;;;;;;;4.00;2.40;;;5.90;99.90;;;;;;5143295;27;20578;-77
2024/01/06 06:15:20;;;;;;;2.43;2.20;;;5.80;99.90;;;;;;5141192;27;20472;-79
2024/01/06 06:18:04;;;;;;;3.60;3.30;;;5.80;99.90;;;;;;5142050;27;20548;-81
2024/01/06 06:20:59;;;;;;;;;;;;;;;;;;;;;
2024/01/06 06:23:57;;;;;;;4.00;2.90;;;5.80;99.90;;;;;;5141490;27;20829;-79
2024/01/06 06:26:49;;;;;;;4.90;3.80;;;5.80;99.90;;;;;;5137809;27;21091;-78
2024/01/06 06:29:35;;;;;;;6.60;4.47;;;5.80;99.90;;;;;;5135625;27;20865;-77
2024/01/06 06:32:16;;;;;;;3.50;3.20;;;5.80;99.90;;;;;;5136417;27;20476;-78
2024/01/06 06:35:01;;;;;;;2.67;2.47;;;5.80;99.90;;;;;;5139138;27;20447;-79
2024/01/06 06:37:41;;;;;;;4.70;2.60;;;5.80;99.90;;;;;;5140353;27;20458;-79
2024/01/06 06:40:28;;;;;;;5.07;2.83;;;5.70;99.90;;;;;;5140627;27;20450;-78
2024/01/06 06:43:19;;;;;;;;;;;;;;;;;;;;;
2024/01/06 06:45:58;;;;;;;4.07;2.67;;;5.90;99.90;;;;;;5137488;28;20434;-77
2024/01/06 06:48:40;;;;;;;3.50;2.90;;;5.70;99.90;;;;;;5140315;28;20450;-79
2024/01/06 06:51:27;;;;;;;3.30;3.07;;;5.70;99.90;;;;;;5142003;28;20474;-78
2024/01/06 06:56:48;;;;;;;4.23;2.77;;;5.70;99.90;;;;;;5134928;28;20774;-80
2024/01/06 06:59:21;;;;;;;3.20;2.90;;;5.40;99.90;;;;;;5138303;28;20453;-78
2024/01/06 07:02:02;;;;;;;3.00;2.80;;;5.70;99.90;;;;;;5138387;28;20827;-80
2024/01/06 07:04:39;;;;;;;3.33;3.03;;;5.70;99.90;;;;;;5137265;28;20470;-78
2024/01/06 07:07:19;;;;;;;3.30;3.10;;;5.70;99.90;;;;;;5138787;28;20449;-79
2024/01/06 07:09:58;;;;;;;4.10;2.57;;;5.70;99.90;;;;;;5138661;28;20453;-80
2024/01/06 07:13:15;;;;;;;3.63;2.40;;;5.70;99.90;;;;;;5138102;28;20504;-77
2024/01/06 07:15:59;;;;;;;4.40;2.60;;;5.70;99.90;;;;;;5127871;28;20498;-78
2024/01/06 07:21:37;;;;;;;5.80;2.43;;;5.70;99.90;;;;;;5137841;28;20845;-78
2024/01/06 07:24:14;;;;;;;5.97;2.90;;;5.80;99.90;;;;;;5145967;27;20470;-79
2024/01/06 07:27:04;;;;;;;2.53;2.37;;;5.70;99.90;;;;;;5147342;27;20454;-80
2024/01/06 07:29:55;;;;;;;;;;;;;;;;;;;;;
2024/01/06 07:32:36;;;;;;;2.70;2.50;;;5.80;99.90;;;;;;5142775;27;20446;-80
2024/01/06 07:35:32;;;;;;;2.67;2.47;;;5.80;99.90;;;;;;5142468;27;20450;-78
2024/01/06 07:38:34;;;;;;;3.60;3.00;;;5.80;99.90;;;;;;5144129;27;20464;-78
2024/01/06 07:41:23;;;;;;;4.20;2.70;;;5.80;99.90;;;;;;5146416;27;20534;-78
2024/01/06 07:47:41;;;;;;;3.03;2.83;;;5.80;99.90;;;;;;5135184;27;20456;-79
2024/01/06 07:50:36;;;;;;;2.53;2.43;;;5.80;99.90;;;;;;5143446;27;20515;-78
2024/01/06 07:56:35;;;;;;;2.70;2.50;;;5.80;99.90;;;;;;5137597;27;20449;-80
2024/01/06 07:59:14;;;;;;;2.70;2.50;;;5.90;99.90;;;;;;5143310;27;20529;-79
2024/01/06 08:02:11;;;;;;;5.40;4.60;;;5.90;99.90;;;;;;5143151;27;20481;-78
2024/01/06 08:04:55;;;;;;;3.33;3.03;;;5.90;99.90;;;;;;5140574;27;20474;-78
2024/01/06 08:07:46;;;;;;;2.77;2.63;;;5.90;99.90;;;;;;5121533;28;20458;-78
2024/01/06 08:10:44;;;;;;;2.87;2.63;;;5.90;99.90;;;;;;5123799;28;20606;-79
2024/01/06 08:13:24;;;;;;;2.63;2.43;;;5.60;99.90;;;;;;5122628;28;20446;-80
2024/01/06 08:16:24;;;;;;;3.33;2.50;;;6.10;99.90;;;;;;5123063;28;20480;-79
2024/01/06 08:19:04;;;;;;;2.60;2.40;;;6.00;99.90;;;;;;5122194;27;20468;-79
2024/01/06 08:21:45;;;;;;;4.60;2.47;;;6.20;99.90;;;;;;5122193;28;20462;-79
2024/01/06 08:27:33;;;;;;;2.67;2.47;;;6.00;99.90;;;;;;5117889;28;20431;-78
2024/01/06 08:33:28;;;;;;;4.10;2.27;;;6.00;99.90;;;;;;5108001;28;20501;-78
2024/01/06 08:36:10;;;;;;;2.27;2.07;;;6.00;99.90;;;;;;5121221;28;20548;-79
2024/01/06 08:41:33;;;;;;;2.57;2.37;;;6.10;99.90;;;;;;5121917;28;20471;-78
2024/01/06 08:44:28;;;;;;;2.90;2.60;;;6.10;99.90;;;;;;5122411;28;20896;-78
2024/01/06 08:47:12;;;;;;;2.57;2.43;;;6.10;99.90;;;;;;5117796;28;20542;-78
2024/01/06 08:49:56;;;;;;;2.67;2.50;;;6.10;99.90;;;;;;5126773;28;20477;-78
2024/01/06 08:52:48;;;;;;;2.30;2.10;;;6.20;99.90;;;;;;5124490;28;20492;-80
2024/01/06 08:55:21;;;;;;;4.83;2.63;;;6.20;99.90;;;;;;5122580;28;20466;-77
2024/01/06 08:57:53;;;;;;;3.30;2.40;;;6.50;99.90;;;;;;5120276;28;20457;-79
2024/01/06 09:00:33;;;;;;;2.10;2.00;;;6.30;99.90;;;;;;5121174;28;20457;-80
2024/01/06 09:03:12;;;;;;;2.43;1.90;;;6.20;99.90;;;;;;5122000;28;20581;-78
2024/01/06 09:05:56;;;;;;;2.20;2.03;;;6.30;99.90;;;;;;5124363;28;20513;-78
2024/01/06 09:17:16;;;;;;;2.57;2.37;;;6.40;99.90;;;;;;5113228;28;20457;-79
2024/01/06 09:19:53;;;;;;;2.40;2.17;;;6.30;99.90;;;;;;5121221;28;20529;-80
2024/01/06 09:22:45;;;;;;;2.30;2.10;;;6.30;99.90;;;;;;5123797;28;20467;-77
2024/01/06 09:25:39;;;;;;;1.90;1.80;;;6.30;99.90;;;;;;5121466;28;20471;-78
2024/01/06 09:28:21;;;;;;;2.67;2.50;;;6.30;99.90;;;;;;5119110;28;20855;-78
2024/01/06 09:31:01;;;;;;;5.03;2.30;;;6.30;99.90;;;;;;5119627;28;20454;-77
2024/01/06 09:33:50;;;;;;;;;;;;;;;;;;;;;
2024/01/06 09:36:36;;;;;;;1.93;1.83;;;6.40;99.90;;;;;;5135683;27;20437;-78
2024/01/06 09:39:08;;;;;;;1.90;1.73;;;6.50;99.90;;;;;;5146837;27;20970;-79
2024/01/06 09:42:08;;;;;;;2.33;2.10;;;6.50;99.90;;;;;;5149055;27;20474;-78
2024/01/06 09:44:50;;;;;;;5.07;2.13;;;6.60;99.90;;;;;;5149001;27;20544;-81
2024/01/06 09:47:30;;;;;;;1.87;1.77;;;6.50;99.90;;;;;;5147115;27;20447;-79
2024/01/06 09:50:05;;;;;;;2.07;1.97;;;6.50;99.90;;;;;;5147172;27;20445;-79
2024/01/06 09:52:55;;;;;;;2.10;2.00;;;6.80;99.90;;;;;;5147557;27;20487;-79
2024/01/06 09:55:51;;;;;;;;;;;;;;;;;;;;;
2024/01/06 09:58:38;;;;;;;2.07;1.97;;;6.70;99.90;;;;;;5150421;27;20469;-78
2024/01/06 10:01:17;;;;;;;3.10;2.90;;;6.70;99.90;;;;;;5146072;27;20486;-80
2024/01/06 10:07:04;;;;;;;2.13;2.00;;;6.80;99.90;;;;;;5115707;28;20935;-80
2024/01/06 10:09:51;;;;;;;2.13;1.90;;;6.70;99.90;;;;;;5119841;28;20451;-79
2024/01/06 10:15:19;;;;;;;6.03;5.53;;;6.70;99.90;;;;;;5138494;27;20474;-82
2024/01/06 10:17:56;;;;;;;2.50;2.40;;;6.70;99.90;;;;;;5143327;27;20899;-81
2024/01/06 10:20:47;;;;;;;2.27;2.17;;;6.60;99.90;;;;;;5144980;27;20467;-80
2024/01/06 10:23:22;;;;;;;3.60;2.60;;;6.90;99.90;;;;;;5139798;27;20548;-80
2024/01/06 10:25:56;;;;;;;2.90;2.70;;;7.20;99.90;;;;;;5134690;27;20446;-79
2024/01/06 10:28:27;;;;;;;2.00;1.90;;;7.00;99.90;;;;;;5146999;27;20451;-79
2024/01/06 10:31:07;;;;;;;2.30;2.20;;;6.90;99.90;;;;;;5143891;27;20458;-78
2024/01/06 10:33:53;;;;;;;2.10;2.00;;;6.80;99.90;;;;;;5145909;27;20416;-79
2024/01/06 10:36:31;;;;;;;2.50;2.40;;;6.80;99.90;;;;;;5147925;27;20441;-78
2024/01/06 10:39:07;;;;;;;3.10;2.80;;;6.80;99.90;;;;;;5147459;27;20455;-80
2024/01/06 10:41:38;;;;;;;2.27;2.17;;;6.60;99.90;;;;;;5145467;27;21063;-78
2024/01/06 10:44:14;;;;;;;5.30;2.73;;;6.50;99.90;;;;;;5143264;27;20470;-82
2024/01/06 10:46:48;;;;;;;2.60;2.40;;;6.90;99.90;;;;;;5138659;28;20445;-79
2024/01/06 10:49:16;;;;;;;1.90;1.80;;;6.90;99.90;;;;;;5140798;28;20533;-80
2024/01/06 10:51:49;;;;;;;2.17;2.07;;;6.80;99.90;;;;;;5139861;28;20459;-78
2024/01/06 10:54:20;;;;;;;2.23;2.13;;;6.70;99.90;;;;;;5142269;28;20442;-78
2024/01/06 10:56:54;;;;;;;2.20;2.00;;;6.70;99.90;;;;;;5143782;28;20447;-78
2024/01/06 10:59:29;;;;;;;3.70;2.73;;;6.80;99.90;;;;;;5144864;27;20434;-79
2024/01/06 11:02:00;;;;;;;2.30;2.20;;;6.80;99.90;;;;;;5149300;27;20473;-80
2024/01/06 11:04:37;;;;;;;2.50;2.40;;;6.70;99.90;;;;;;5149804;27;20471;-79
2024/01/06 11:07:28;;;;;;;2.80;2.70;;;6.60;99.90;;;;;;5148956;27;20450;-80
2024/01/06 11:10:17;;;;;;;2.20;2.10;;;6.60;99.90;;;;;;5142721;27;20448;-81
2024/01/06 11:13:09;;;;;;;1.70;1.70;;;6.50;99.90;;;;;;5147413;27;20454;-78
2024/01/06 11:15:48;;;;;;;2.60;2.40;;;6.50;99.90;;;;;;5138350;27;20445;-81
2024/01/06 11:18:42;;;;;;;2.87;2.67;;;6.60;99.90;;;;;;5137830;27;20448;-81
2024/01/06 11:21:29;;;;;;;2.57;2.10;;;6.70;99.90;;;;;;5124519;28;20467;-81
2024/01/06 11:24:49;;;;;;;2.77;2.57;;;6.60;99.90;;;;;;5125577;28;20498;-80
2024/01/06 11:27:30;;;;;;;;;;;;;;;;;;;;;
2024/01/06 11:30:19;;;;;;;3.13;2.93;;;6.50;99.90;;;;;;5128512;28;20438;-80
2024/01/06 11:33:00;;;;;;;3.37;3.17;;;6.60;99.90;;;;;;5127611;28;20538;-83
2024/01/06 11:35:41;;;;;;;3.13;2.93;;;6.60;99.90;;;;;;5129316;28;20443;-80
2024/01/06 11:38:09;;;;;;;4.07;3.77;;;6.80;99.90;;;;;;5131292;28;20483;-80
2024/01/06 11:40:43;;;;;;;4.07;3.77;;;6.60;99.90;;;;;;5131500;28;20454;-79
2024/01/06 11:43:17;;;;;;;4.07;3.77;;;6.30;99.90;;;;;;5129990;28;20456;-82
2024/01/06 11:45:46;;;;;;;3.80;3.60;;;6.50;99.90;;;;;;5132020;28;20505;-81
2024/01/06 11:48:17;;;;;;;5.20;4.80;;;6.70;99.90;;;;;;5136336;27;20446;-78
2024/01/06 11:50:47;;;;;;;3.67;3.47;;;6.70;99.90;;;;;;5142775;27;20431;-80
2024/01/06 11:53:22;;;;;;;4.60;4.27;;;6.30;99.90;;;;;;5147930;27;20501;-78
2024/01/06 11:56:07;;;;;;;8.20;7.40;;;6.70;99.90;;;;;;5149919;27;20470;-80
2024/01/06 11:58:44;;;;;;;4.30;4.00;;;6.60;99.90;;;;;;5148202;27;20481;-78
2024/01/06 12:01:23;;;;;;;4.70;4.40;;;6.50;99.90;;;;;;5146027;27;20475;-82
2024/01/06 12:04:03;;;;;;;4.50;4.20;;;6.50;99.90;;;;;;5143783;27;20424;-78
2024/01/06 12:06:39;;;;;;;4.90;4.50;;;6.50;99.90;;;;;;5141642;27;20439;-79
2024/01/06 12:09:14;;;;;;;5.10;4.70;;;6.60;99.90;;;;;;5141429;27;20479;-80
2024/01/06 12:11:56;;;;;;;6.40;5.90;;;6.60;99.90;;;;;;5141758;27;20883;-77
2024/01/06 12:14:30;;;;;;;6.13;5.60;;;6.50;99.90;;;;;;5140725;27;20471;-80
2024/01/06 12:17:15;;;;;;;5.60;5.20;;;6.70;99.90;;;;;;5140698;27;20420;-79
2024/01/06 12:19:51;;;;;;;4.83;4.50;;;6.60;99.90;;;;;;5140828;27;20449;-78
2024/01/06 12:22:29;;;;;;;6.23;5.63;;;6.50;99.90;;;;;;5140888;27;20473;-80
2024/01/06 12:25:00;;;;;;;5.27;4.87;;;6.40;99.90;;;;;;5139889;27;20471;-80
2024/01/06 12:27:30;;;;;;;5.43;5.10;;;6.70;99.90;;;;;;5120099;28;20841;-79
2024/01/06 12:30:08;;;;;;;6.37;5.77;;;6.50;99.90;;;;;;5122470;28;20447;-79
2024/01/06 12:32:40;;;;;;;6.60;4.80;;;6.50;99.90;;;;;;5122476;28;20494;-79
2024/01/06 12:35:12;;;;;;;5.20;4.90;;;6.60;99.90;;;;;;5123005;28;20508;-81
2024/01/06 12:37:43;;;;;;;5.47;5.07;;;6.60;99.90;;;;;;5123508;28;20819;-82
2024/01/06 12:40:21;;;;;;;5.13;4.80;;;6.60;99.90;;;;;;5120986;28;20448;-80
2024/01/06 12:42:56;;;;;;;5.47;5.00;;;6.60;99.90;;;;;;5121137;28;20507;-82
2024/01/06 12:45:32;;;;;;;5.10;4.70;;;6.70;99.90;;;;;;5122269;28;20463;-81
2024/01/06 12:48:03;;;;;;;5.37;4.93;;;6.70;99.90;;;;;;5121832;28;20509;-80
2024/01/06 12:50:31;;;;;;;5.17;4.87;;;6.50;99.90;;;;;;5122447;28;20443;-80
2024/01/06 12:53:11;;;;;;;4.53;4.23;;;6.60;99.90;;;;;;5121272;28;20490;-80
2024/01/06 12:55:47;;;;;;;4.93;4.53;;;6.70;99.90;;;;;;5121256;27;20454;-81
2024/01/06 12:58:25;;;;;;;5.53;5.03;;;6.50;99.90;;;;;;5126526;27;20450;-82
2024/01/06 13:01:10;;;;;;;5.63;5.23;;;6.60;99.90;;;;;;5119863;27;20459;-81
2024/01/06 13:04:00;;;;;;;4.87;4.40;;;6.40;99.90;;;;;;5131884;27;20504;-79
2024/01/06 13:06:32;;;;;;;5.33;4.93;;;6.40;99.90;;;;;;5132913;27;20472;-81
2024/01/06 13:09:16;;;;;;;5.40;4.90;;;6.20;99.90;;;;;;5136136;27;20426;-80
2024/01/06 13:11:45;;;;;;;5.00;4.70;;;6.40;99.90;;;;;;5134456;27;21017;-79
2024/01/06 13:14:17;;;;;;;5.90;5.40;;;6.40;99.90;;;;;;5132413;27;20452;-78
2024/01/06 13:16:48;;;;;;;5.57;5.17;;;6.40;99.90;;;;;;5130330;27;20449;-80
2024/01/06 13:19:21;;;;;;;6.40;5.90;;;6.50;99.90;;;;;;5135545;27;20435;-80
2024/01/06 13:21:56;;;;;;;6.80;6.30;;;6.20;99.90;;;;;;5129461;27;20835;-79
2024/01/06 13:24:32;;;;;;;6.13;5.63;;;6.30;99.90;;;;;;5129673;27;20472;-81
2024/01/06 13:27:05;;;;;;;6.90;6.30;;;6.30;99.90;;;;;;5135232;27;20487;-80
2024/01/06 13:29:40;;;;;;;6.20;5.70;;;6.20;99.90;;;;;;5131409;27;20474;-80
2024/01/06 13:32:15;;;;;;;7.13;6.43;;;6.20;99.90;;;;;;5129280;27;20560;-79
2024/01/06 13:35:04;;;;;;;8.07;6.30;;;6.30;99.90;;;;;;5121770;27;20467;-82
2024/01/06 13:37:50;;;;;;;;;;;;;;;;;;;;;
2024/01/06 13:40:24;;;;;;;7.07;6.43;;;6.20;99.90;;;;;;5123842;27;20940;-80
2024/01/06 13:43:07;;;;;;;8.90;7.83;;;6.20;99.90;;;;;;5128975;27;20494;-82
2024/01/06 13:45:35;;;;;;;7.30;6.53;;;6.10;99.90;;;;;;5137907;27;20482;-80
2024/01/06 13:52:09;;;;;;;8.20;7.33;;;6.20;99.90;;;;;;5059025;27;20902;-79
2024/01/06 13:58:35;;;;;;;8.10;7.40;;;6.20;99.90;;;;;;5039434;28;20445;-78
2024/01/06 14:01:44;;;;;;;7.83;7.10;;;6.20;99.90;;;;;;5049445;28;20971;-78
2024/01/06 14:08:20;;;;;;;7.53;6.83;;;6.20;99.90;;;;;;5074658;27;20428;-82
2024/01/06 14:14:02;;;;;;;7.67;7.00;;;6.10;99.90;;;;;;5116569;27;20446;-81
2024/01/06 14:16:38;;;;;;;7.40;6.80;;;6.20;99.90;;;;;;5119201;27;20446;-81
2024/01/06 14:19:08;;;;;;;7.87;6.73;;;6.10;99.90;;;;;;5124243;27;20447;-79
2024/01/06 14:21:38;;;;;;;8.43;7.63;;;6.00;99.90;;;;;;5116565;28;20486;-82
2024/01/06 14:24:57;;;;;;;8.93;7.33;;;6.00;99.90;;;;;;5120366;27;20445;-79
2024/01/06 14:33:52;;;;;;;8.77;7.97;;;5.60;99.90;;;;;;5100039;27;20825;-81
2024/01/06 14:36:34;;;;;;;8.37;7.63;;;6.00;99.90;;;;;;5133039;27;20447;-82
2024/01/06 14:39:16;;;;;;;7.90;7.20;;;6.00;99.90;;;;;;5122684;28;20480;-79
2024/01/06 14:42:05;;;;;;;9.50;8.40;;;6.00;99.90;;;;;;5133122;27;20470;-80
2024/01/06 14:44:39;;;;;;;10.13;9.00;;;5.60;99.90;;;;;;5121796;27;20443;-82
2024/01/06 14:47:14;;;;;;;9.27;8.00;;;5.90;99.90;;;;;;5124263;28;20457;-79
2024/01/06 14:50:02;;;;;;;8.70;7.90;;;5.70;99.90;;;;;;5131762;28;20445;-79
2024/01/06 14:52:33;;;;;;;8.87;8.07;;;5.80;99.90;;;;;;5135112;28;20481;-79
2024/01/06 14:55:11;;;;;;;9.83;8.93;;;5.90;99.90;;;;;;5121012;28;20446;-79
2024/01/06 15:21:51;;;;;;;10.60;9.50;;;6.00;99.90;;;;;;5076756;28;20484;-79
2024/01/06 15:24:24;;;;;;;10.70;9.70;;;6.00;99.90;;;;;;5059632;28;20437;-80
2024/01/06 15:26:59;;;;;;;10.80;9.70;;;5.90;99.90;;;;;;5074953;28;20476;-80
2024/01/06 15:29:37;;;;;;;10.57;9.60;;;6.00;99.90;;;;;;5071149;28;20448;-81
2024/01/06 15:32:18;;;;;;;10.27;9.27;;;6.00;99.90;;;;;;5079931;28;20546;-81
2024/01/06 15:35:03;;;;;;;11.60;10.43;;;5.90;99.90;;;;;;5077434;28;20958;-79
2024/01/06 15:37:54;;;;;;;11.07;10.00;;;5.90;99.90;;;;;;5069173;28;20449;-81
2024/01/06 15:40:40;;;;;;;11.10;10.00;;;5.90;99.90;;;;;;5077104;28;20477;-81
2024/01/06 15:43:18;;;;;;;12.40;10.87;;;5.80;99.90;;;;;;5067925;28;20468;-81
2024/01/06 15:45:58;;;;;;;11.60;10.40;;;5.80;99.90;;;;;;5078818;28;20486;-82
2024/01/06 15:55:43;;;;;;;13.00;11.13;;;5.90;99.90;;;;;;4939394;29;20485;-78
2024/01/06 16:02:12;;;;;;;12.03;10.87;;;5.50;99.90;;;;;;4851360;29;20499;-83
2024/01/06 16:04:41;;;;;;;12.47;11.27;;;5.80;99.90;;;;;;4873161;29;20449;-81
2024/01/06 16:07:09;;;;;;;13.97;11.30;;;5.70;99.90;;;;;;5043365;28;20459;-79
2024/01/06 16:09:42;;;;;;;13.03;11.60;;;5.70;99.90;;;;;;5078644;28;20457;-80
2024/01/06 16:12:11;;;;;;;13.40;11.60;;;5.90;99.90;;;;;;5079662;28;20479;-81
2024/01/06 16:14:43;;;;;;;12.73;11.43;;;5.80;99.90;;;;;;5070396;28;20522;-80
2024/01/06 16:17:17;;;;;;;13.70;12.00;;;5.70;99.90;;;;;;5074588;28;20446;-78